Tetney, United Kingdom
Current Conditions -  °F | °C
As of 11:50 PM on Saturday 22 Nov 2014 (Local Time) from EGXS Reporting Station
Overcast Overcast  
Wind Chill: 50°   Ceiling: 18000
Heat Index: 50°   Visibility: 6mi
Dew Point: 48°   Wind: 6mph
Humidity: 94%   Direction: 230°SW
Pressure: 29.97"   Gusts: NA
Location:  53.49°N, 0.02°W
Report Text: EGXS 222350Z AUTO 23005KT 9999 // FEW070/// OVC180/// 10/09 Q1015
Loading
Personal Weather Stations






























Interactive Weather Map New forecast layout! Learn more

10-Day Weather Forecast

Advertisements
Track Severe Weather on mobile